Kezdőlap
METAR-TAF:

METAR-TAF

Repülőterek :

Area_Regional_Airport

South Haven, Michigan, Amerikai Egyesült Államok

földrajzi szélesség: 42-21-03N, földrajzi hosszúság: 086-15-22W, magasság: 203 m

Jelenlegi meteorológiai megfigyelések

A jelentés 37 perccel ezelõtt készült, 09:15 UTC
Szélcsend
Hőmérséklet 14°C
Páratartalom 100%
Légköri nyomás 1020 hPa
Látótávolság: 11.3 km
Derült ég

METAR: KLWA 210915Z AUTO 00000KT 7SM CLR 14/14 A3011 RMK AO2 T01400135

Idő: 05:52 (09:52 UTC)


TAF: hiányzik

Meteorológiai megfigyelések és előrejelzések több, mint 4000 repülőtéren (METAR és TAF jelentéseket).

A térképen piros és sárga pontok jelzik az elérhető meteorológiai állomásokat.

Mozgassa az egeret a pont fölött, hogy megjelenjen az állomás neve.

Azután kattintson az időjárási megfigyelések és előrejelzések megtekintéséhez.

A térkép megváltoztatása: kattintson a fekete keresztel jelölt zöld gombra ráközelítéshez, a vonallal jelölt zöld gombra távolításhoz, vagy a zöld nyilakra a szomszédos térképek eléréséhez.


METAR-TAF: